Red Cliff, CO

11:38 PM MDT on March 26, 2015 (GMT -0600)
HADS EAGLE RIVER AT REDCLIFF CO US NWS | | Change Station
CLOSE
Current Station
Personal Weather Station
Location: Red Cliff, CO
Elevation: 8653 ft
Nearby Weather Stations

Elev 8653 ft 39.51 °N, 106.37 °W | Updated 294 days ago

Mostly Cloudy
Mostly Cloudy
23 °F
Feels Like 11 °F
N
13
Wind Variable Wind from WNW
Gusts 23 mph

Today
High -- | Low -- °F
--% Chance of Precip.
Yesterday
High -- | Low -- °F
Precip. -- in
6:59 AM 7:23 PM
Waxing Crescent, 49% visible
Pressure 30.17 in
Visibility 10.0 miles
Clouds Overcast 5000 ft
Windchill 11 °F
Dew Point 16 °F
Humidity 73%
Rainfall in
Snow Depth Not available.
UV 0 out of 12
Pollen 9.30 out of 12
Air Quality Not available.
Flu Activity Not available.
METAR KLXV 270453Z AUTO 30014KT 10SM OVC050 01/M07 A3037 RMK AO2 SLP214 T00111072

More Conditions Fewer Conditions

Pressure 30.17 in
Visibility 10.0 miles
Clouds Overcast 5000 ft
Windchill 11 °F
Dew Point 16 °F
Humidity 73%
Rainfall in
Snow Depth Not available.
UV 0 out of 12
Pollen 9.30 out of 12
Air Quality Not available.
Flu Activity Not available.
METAR KLXV 270453Z AUTO 30014KT 10SM OVC050 01/M07 A3037 RMK AO2 SLP214 T00111072

More Conditions Fewer Conditions

10-Day Weather Forecast

Almanac

Astronomy

Mar. 26, 2015 Rise Set
Actual Time
Civil Twilight
Nautical Twilight
Astronomical Twilight
Moon
Length of Visible Light
Length of Day
Tomorrow will be .
, % of the Moon is Illuminated

Today's Extremes

State Highs State Lows

Community

WunderPhotos

Upload Photos

1,808,698 photos uploaded!

WunderBlogs® & News

Nearby

Air Quality

  Air Quality AQ Index Pollutant
Not available.

Snow Depth

Station Depth Elevation

Earthquake Activity

City Distance Mag. Time & Date
Minimum magnitude displayed is 2.5.

Coastal Water Temperatures

Place Temperature

Stations

Nearby Weather Stations

Station Location Temp. Windchill Dew Point Humidity Wind Precip. Elev Updated Type